Time;durP1;ratioP1;P1;durP2;ratioP2;P2;SDS_P1;SDS_P2;PMS_P1;PMS_P2;Temp;Humidity;BMP_temperature;BMP_pressure;BME280_temperature;BME280_humidity;BME280_pressure;Samples;Min_cycle;Max_cycle;Signal;HPM_P1;HPM_P2
2022/04/13 00:00:28;;;;;;;;;;;9.60;77.60;;;;;;5125870;28;19915;-68
2022/04/13 00:02:54;;;;;;;;;;;9.60;77.30;;;;;;5125524;28;20210;-68
2022/04/13 00:05:20;;;;;;;;;;;9.60;77.40;;;;;;5126062;28;19915;-68
2022/04/13 00:07:45;;;;;;;;;;;9.50;77.70;;;;;;5125833;28;19908;-68
2022/04/13 00:10:11;;;;;;;;;;;9.60;77.60;;;;;;5125622;28;19986;-68
2022/04/13 00:12:37;;;;;;;;;;;9.50;77.90;;;;;;5125613;28;19961;-68
2022/04/13 00:15:03;;;;;;;;;;;9.50;77.70;;;;;;5125818;28;20191;-68
2022/04/13 00:17:29;;;;;;;;;;;9.50;77.60;;;;;;5125515;28;19933;-68
2022/04/13 00:19:55;;;;;;;;;;;9.40;77.70;;;;;;5125640;28;19953;-68
2022/04/13 00:22:21;;;;;;;;;;;9.40;78.20;;;;;;5125370;28;19947;-68
2022/04/13 00:24:47;;;;;;;;;;;9.30;78.00;;;;;;5124764;28;20107;-68
2022/04/13 00:27:13;;;;;;;;;;;9.30;78.00;;;;;;5125546;28;19908;-68
2022/04/13 00:29:38;;;;;;;;;;;9.20;78.40;;;;;;5125436;28;19912;-68
2022/04/13 00:32:04;;;;;;;;;;;9.30;78.80;;;;;;5125272;28;19953;-68
2022/04/13 00:34:30;;;;;;;;;;;9.20;79.10;;;;;;5125504;28;19915;-68
2022/04/13 00:36:57;;;;;;;;;;;9.20;78.80;;;;;;5125401;28;19908;-68
2022/04/13 00:39:24;;;;;;;;;;;9.20;78.60;;;;;;5125112;28;19929;-68
2022/04/13 00:41:59;;;;;;;;;;;9.20;78.60;;;;;;5107081;28;19923;-68
2022/04/13 00:44:27;;;;;;;;;;;9.30;79.50;;;;;;5125217;28;19908;-68
2022/04/13 00:46:53;;;;;;;;;;;9.30;78.90;;;;;;5125244;28;19907;-68
2022/04/13 00:49:19;;;;;;;;;;;9.30;79.30;;;;;;5125001;28;19907;-68
2022/04/13 00:51:45;;;;;;;;;;;9.30;79.50;;;;;;5106836;28;19968;-68
2022/04/13 00:54:10;;;;;;;;;;;9.20;79.40;;;;;;5124948;28;19915;-68
2022/04/13 00:56:36;;;;;;;;;;;9.20;79.30;;;;;;5107073;28;19908;-68
2022/04/13 00:59:06;;;;;;;;;;;9.20;79.30;;;;;;5124932;28;20234;-68
2022/04/13 01:01:32;;;;;;;;;;;9.20;79.80;;;;;;5106662;28;19908;-68
2022/04/13 01:03:57;;;;;;;;;;;9.30;79.90;;;;;;5124897;28;20185;-68
2022/04/13 01:06:23;;;;;;;;;;;9.30;79.90;;;;;;5090022;28;19929;-69
2022/04/13 01:08:49;;;;;;;;;;;9.20;80.10;;;;;;5142403;22;19919;-67
2022/04/13 01:11:16;;;;;;;;;;;9.20;80.40;;;;;;5087687;28;19912;-67
2022/04/13 01:13:41;;;;;;;;;;;9.20;80.70;;;;;;5105647;28;19908;-67
2022/04/13 01:16:07;;;;;;;;;;;9.30;80.50;;;;;;5123508;28;19933;-67
2022/04/13 01:18:33;;;;;;;;;;;9.20;80.40;;;;;;5123461;28;20136;-67
2022/04/13 01:21:00;;;;;;;;;;;9.20;80.00;;;;;;5123292;28;19908;-67
2022/04/13 01:23:25;;;;;;;;;;;9.20;79.70;;;;;;5123169;28;19908;-68
2022/04/13 01:25:51;;;;;;;;;;;9.20;79.50;;;;;;5105239;28;20207;-67
2022/04/13 01:28:17;;;;;;;;;;;9.20;80.40;;;;;;5105339;28;19946;-67
2022/04/13 01:30:43;;;;;;;;;;;9.10;80.70;;;;;;5122918;28;19912;-67
2022/04/13 01:33:09;;;;;;;;;;;9.10;81.00;;;;;;5123209;28;19908;-67
2022/04/13 01:35:34;;;;;;;;;;;9.10;81.00;;;;;;5123245;28;19939;-67
2022/04/13 01:38:00;;;;;;;;;;;9.00;81.00;;;;;;5123093;28;19912;-67
2022/04/13 01:40:26;;;;;;;;;;;9.00;81.00;;;;;;5103470;28;19950;-67
2022/04/13 01:42:51;;;;;;;;;;;9.00;81.30;;;;;;5102469;28;20112;-67
2022/04/13 01:45:20;;;;;;;;;;;8.90;81.60;;;;;;5102528;28;20005;-67
2022/04/13 01:47:47;;;;;;;;;;;8.90;81.80;;;;;;5102625;28;20301;-67
2022/04/13 01:50:13;;;;;;;;;;;8.90;81.60;;;;;;5051217;28;19916;-67
2022/04/13 01:52:39;;;;;;;;;;;8.90;81.80;;;;;;5102461;28;19908;-67
2022/04/13 01:55:05;;;;;;;;;;;9.00;82.30;;;;;;5103252;28;20195;-67
2022/04/13 01:57:31;;;;;;;;;;;9.00;82.40;;;;;;5103533;28;19908;-67
2022/04/13 01:59:56;;;;;;;;;;;8.90;82.80;;;;;;5103323;28;20006;-67
2022/04/13 02:02:22;;;;;;;;;;;8.90;81.80;;;;;;5103061;28;19915;-68
2022/04/13 02:04:48;;;;;;;;;;;8.80;81.90;;;;;;5085389;28;19915;-68
2022/04/13 02:07:14;;;;;;;;;;;8.80;82.10;;;;;;5103398;28;20191;-68
2022/04/13 02:09:40;;;;;;;;;;;8.70;82.30;;;;;;5084909;28;19923;-68
2022/04/13 02:12:06;;;;;;;;;;;8.70;82.60;;;;;;5102998;28;20277;-68
2022/04/13 02:14:31;;;;;;;;;;;8.70;83.00;;;;;;5103239;28;19908;-68
2022/04/13 02:16:57;;;;;;;;;;;8.70;82.90;;;;;;5103200;28;19908;-68
2022/04/13 02:19:23;;;;;;;;;;;8.60;83.70;;;;;;5103089;28;19908;-68
2022/04/13 02:21:48;;;;;;;;;;;8.60;83.90;;;;;;5102960;28;19916;-68
2022/04/13 02:24:14;;;;;;;;;;;8.50;84.20;;;;;;5102976;28;19908;-68
2022/04/13 02:26:40;;;;;;;;;;;8.50;84.40;;;;;;5103217;28;19915;-68
2022/04/13 02:29:06;;;;;;;;;;;8.40;84.60;;;;;;5103039;28;20135;-68
2022/04/13 02:31:32;;;;;;;;;;;8.40;85.10;;;;;;5102704;28;19923;-68
2022/04/13 02:33:57;;;;;;;;;;;8.40;85.00;;;;;;5103180;28;19953;-68
2022/04/13 02:36:23;;;;;;;;;;;8.50;85.00;;;;;;5103063;28;19916;-68
2022/04/13 02:38:49;;;;;;;;;;;8.40;85.80;;;;;;5102740;28;19908;-68
2022/04/13 02:41:14;;;;;;;;;;;8.40;85.30;;;;;;5102697;28;19930;-68
2022/04/13 02:43:40;;;;;;;;;;;8.30;85.50;;;;;;5102976;28;19908;-68
2022/04/13 02:46:06;;;;;;;;;;;8.30;85.50;;;;;;5102979;28;19946;-67
2022/04/13 02:48:32;;;;;;;;;;;8.20;86.00;;;;;;5102878;28;19908;-68
2022/04/13 02:50:57;;;;;;;;;;;8.20;85.70;;;;;;5102583;28;19913;-68
2022/04/13 02:53:26;;;;;;;;;;;8.40;86.20;;;;;;5102696;28;20106;-68
2022/04/13 02:55:53;;;;;;;;;;;8.40;86.50;;;;;;5102959;28;19908;-67
2022/04/13 02:58:18;;;;;;;;;;;8.30;87.10;;;;;;5102769;28;19912;-68
2022/04/13 03:00:44;;;;;;;;;;;8.30;87.40;;;;;;5102506;28;19908;-68
2022/04/13 03:03:10;;;;;;;;;;;8.20;87.70;;;;;;5102844;28;19915;-68
2022/04/13 03:05:37;;;;;;;;;;;8.20;87.40;;;;;;5102731;28;19916;-68
2022/04/13 03:08:03;;;;;;;;;;;8.20;87.90;;;;;;5102638;28;20222;-68
2022/04/13 03:10:29;;;;;;;;;;;8.20;88.50;;;;;;5102306;28;19966;-68
2022/04/13 03:12:54;;;;;;;;;;;8.20;88.60;;;;;;5084448;28;20207;-68
2022/04/13 03:15:22;;;;;;;;;;;8.20;87.70;;;;;;5102710;28;19975;-68
2022/04/13 03:17:51;;;;;;;;;;;8.10;87.20;;;;;;5102720;28;19908;-68
2022/04/13 03:20:18;;;;;;;;;;;8.10;87.50;;;;;;5102966;28;20202;-68
2022/04/13 03:22:44;;;;;;;;;;;8.10;87.50;;;;;;5102347;28;19914;-68
2022/04/13 03:25:10;;;;;;;;;;;8.00;88.60;;;;;;5102338;28;19945;-68
2022/04/13 03:27:37;;;;;;;;;;;8.00;88.40;;;;;;5102523;28;19975;-68
2022/04/13 03:30:04;;;;;;;;;;;8.00;87.90;;;;;;5084753;28;19920;-68
2022/04/13 03:32:37;;;;;;;;;;;7.90;88.60;;;;;;5084377;28;19923;-68
2022/04/13 03:35:06;;;;;;;;;;;7.80;89.00;;;;;;5087530;28;19915;-67
2022/04/13 03:37:32;;;;;;;;;;;7.80;89.10;;;;;;5106153;28;19908;-68
2022/04/13 03:39:58;;;;;;;;;;;7.80;88.90;;;;;;5105666;28;19908;-67
2022/04/13 03:42:23;;;;;;;;;;;7.80;88.90;;;;;;5105725;28;19915;-68
2022/04/13 03:44:49;;;;;;;;;;;7.80;89.20;;;;;;5106120;28;20174;-68
2022/04/13 03:47:15;;;;;;;;;;;7.80;89.20;;;;;;5105941;28;19908;-68
2022/04/13 03:49:41;;;;;;;;;;;7.80;89.20;;;;;;5105765;28;19978;-67
2022/04/13 03:52:07;;;;;;;;;;;7.80;90.00;;;;;;5105605;28;19940;-68
2022/04/13 03:54:33;;;;;;;;;;;7.80;90.20;;;;;;5105521;28;19912;-68
2022/04/13 03:56:58;;;;;;;;;;;7.80;90.50;;;;;;5105684;28;19983;-67
2022/04/13 03:59:25;;;;;;;;;;;7.80;90.70;;;;;;5105415;28;19972;-67
2022/04/13 04:01:51;;;;;;;;;;;7.70;90.70;;;;;;5105472;28;19908;-68
2022/04/13 04:04:17;;;;;;;;;;;7.70;91.00;;;;;;5105740;28;19958;-68
2022/04/13 04:06:43;;;;;;;;;;;7.60;91.00;;;;;;5105481;28;20111;-68
2022/04/13 04:09:08;;;;;;;;;;;7.50;91.00;;;;;;5105015;28;19943;-68
2022/04/13 04:11:34;;;;;;;;;;;7.50;91.10;;;;;;5104976;28;19918;-68
2022/04/13 04:14:00;;;;;;;;;;;7.50;91.10;;;;;;5105446;28;20222;-68
2022/04/13 04:16:26;;;;;;;;;;;7.40;91.10;;;;;;5105503;28;20257;-68
2022/04/13 04:18:51;;;;;;;;;;;7.40;91.00;;;;;;5087210;28;19916;-68
2022/04/13 04:21:17;;;;;;;;;;;7.40;91.10;;;;;;5105002;28;19953;-68
2022/04/13 04:23:43;;;;;;;;;;;7.40;91.10;;;;;;5105078;28;20200;-67
2022/04/13 04:26:09;;;;;;;;;;;7.40;91.10;;;;;;5105261;28;19955;-68
2022/04/13 04:28:35;;;;;;;;;;;7.40;91.20;;;;;;5105174;28;19931;-68
2022/04/13 04:31:01;;;;;;;;;;;7.20;91.20;;;;;;5104735;28;19912;-68
2022/04/13 04:33:26;;;;;;;;;;;7.30;91.30;;;;;;5087215;28;19937;-68
2022/04/13 04:35:52;;;;;;;;;;;7.30;91.30;;;;;;5086887;28;20147;-68
2022/04/13 04:38:18;;;;;;;;;;;7.20;91.40;;;;;;5104953;28;19908;-68
2022/04/13 04:40:44;;;;;;;;;;;7.20;91.20;;;;;;5086445;28;19975;-68
2022/04/13 04:43:10;;;;;;;;;;;7.20;91.30;;;;;;5104914;28;20246;-68
2022/04/13 04:45:36;;;;;;;;;;;7.20;90.90;;;;;;5103747;28;19991;-67
2022/04/13 04:48:04;;;;;;;;;;;7.20;90.90;;;;;;5104879;28;19908;-68
2022/04/13 04:50:30;;;;;;;;;;;7.20;90.90;;;;;;5104641;28;19912;-68
2022/04/13 04:52:56;;;;;;;;;;;7.20;91.00;;;;;;5104492;28;19908;-68
2022/04/13 04:55:22;;;;;;;;;;;7.20;91.00;;;;;;5104330;28;20111;-68
2022/04/13 04:57:47;;;;;;;;;;;7.10;91.30;;;;;;5104571;28;19961;-68
2022/04/13 05:00:18;;;;;;;;;;;7.20;91.70;;;;;;5104525;28;19975;-68
2022/04/13 05:02:45;;;;;;;;;;;7.20;91.50;;;;;;5104254;28;19908;-68
2022/04/13 05:05:13;;;;;;;;;;;7.20;91.60;;;;;;5104504;28;19915;-68
2022/04/13 05:07:39;;;;;;;;;;;7.20;91.70;;;;;;5086326;28;19955;-68
2022/04/13 05:10:06;;;;;;;;;;;7.30;91.70;;;;;;5103835;28;20119;-68
2022/04/13 05:12:46;;;;;;;;;;;7.30;91.50;;;;;;5104132;28;19915;-68
2022/04/13 05:15:12;;;;;;;;;;;7.30;91.50;;;;;;5087791;28;19908;-68
2022/04/13 05:17:37;;;;;;;;;;;7.30;91.60;;;;;;5104407;28;19914;-68
2022/04/13 05:20:05;;;;;;;;;;;7.30;91.60;;;;;;5086103;28;20256;-67
2022/04/13 05:22:30;;;;;;;;;;;7.30;91.60;;;;;;5085818;28;19947;-68
2022/04/13 05:25:02;;;;;;;;;;;7.30;91.50;;;;;;5103996;28;19908;-68
2022/04/13 05:27:28;;;;;;;;;;;7.40;91.50;;;;;;5104115;28;19908;-68
2022/04/13 05:29:53;;;;;;;;;;;7.40;91.50;;;;;;5085944;28;19975;-67
2022/04/13 05:32:19;;;;;;;;;;;7.40;91.40;;;;;;5103908;28;19915;-68
2022/04/13 05:34:45;;;;;;;;;;;7.40;91.40;;;;;;5104121;28;20145;-68
2022/04/13 05:37:10;;;;;;;;;;;7.50;91.40;;;;;;5104195;28;19936;-68
2022/04/13 05:39:38;;;;;;;;;;;7.60;91.10;;;;;;5103643;28;19953;-68
2022/04/13 05:42:04;;;;;;;;;;;7.70;91.00;;;;;;5104845;28;19908;-68
2022/04/13 05:44:29;;;;;;;;;;;7.70;91.00;;;;;;5104524;28;19908;-67
2022/04/13 05:46:55;;;;;;;;;;;7.80;90.90;;;;;;5103569;28;19979;-68
2022/04/13 05:49:21;;;;;;;;;;;7.90;90.80;;;;;;5103228;28;20196;-68
2022/04/13 05:51:46;;;;;;;;;;;8.00;90.50;;;;;;5103172;28;19908;-67
2022/04/13 05:54:12;;;;;;;;;;;8.10;90.50;;;;;;5103298;28;19915;-68
2022/04/13 05:56:38;;;;;;;;;;;8.20;90.30;;;;;;5102909;28;19908;-68
2022/04/13 05:59:03;;;;;;;;;;;8.20;90.10;;;;;;5103476;28;19908;-68
2022/04/13 06:01:29;;;;;;;;;;;8.20;90.00;;;;;;5103236;28;20182;-68
2022/04/13 06:03:55;;;;;;;;;;;8.30;90.00;;;;;;5103442;28;19961;-68
2022/04/13 06:06:21;;;;;;;;;;;8.40;89.80;;;;;;5103377;28;19908;-68
2022/04/13 06:08:47;;;;;;;;;;;8.50;89.70;;;;;;5103448;28;19911;-68
2022/04/13 06:11:12;;;;;;;;;;;8.50;89.30;;;;;;5102668;28;20294;-68
2022/04/13 06:13:38;;;;;;;;;;;8.60;88.30;;;;;;5103265;28;19935;-68
2022/04/13 06:16:04;;;;;;;;;;;8.60;87.80;;;;;;5103400;28;19908;-69
2022/04/13 06:18:30;;;;;;;;;;;8.70;86.70;;;;;;5103028;28;19908;-69
2022/04/13 06:20:55;;;;;;;;;;;8.80;86.70;;;;;;5102894;28;20207;-69
2022/04/13 06:23:21;;;;;;;;;;;8.90;86.10;;;;;;5103244;28;19908;-69
2022/04/13 06:25:47;;;;;;;;;;;9.00;85.20;;;;;;5103534;28;19908;-67
2022/04/13 06:28:12;;;;;;;;;;;9.10;85.10;;;;;;5103072;28;19908;-67
2022/04/13 06:30:38;;;;;;;;;;;9.20;84.70;;;;;;5102810;28;19979;-68
2022/04/13 06:33:04;;;;;;;;;;;9.30;84.30;;;;;;5102988;28;19912;-68
2022/04/13 06:35:30;;;;;;;;;;;9.50;83.80;;;;;;5103222;28;20218;-69
2022/04/13 06:37:55;;;;;;;;;;;9.50;82.60;;;;;;5068237;28;19951;-68
2022/04/13 06:40:21;;;;;;;;;;;9.70;82.40;;;;;;5102835;28;19908;-69
2022/04/13 06:42:48;;;;;;;;;;;9.80;80.70;;;;;;5084818;28;19969;-68
2022/04/13 06:45:14;;;;;;;;;;;10.10;78.90;;;;;;5103012;28;19908;-68
2022/04/13 06:47:40;;;;;;;;;;;10.20;78.20;;;;;;5102872;28;19952;-70
2022/04/13 06:50:06;;;;;;;;;;;10.30;78.40;;;;;;5084960;28;19912;-69
2022/04/13 06:52:33;;;;;;;;;;;10.30;78.90;;;;;;5102621;28;19908;-69
2022/04/13 06:54:58;;;;;;;;;;;10.40;79.00;;;;;;5102713;28;19908;-69
2022/04/13 06:57:24;;;;;;;;;;;10.50;78.20;;;;;;5103050;28;20096;-68
2022/04/13 06:59:50;;;;;;;;;;;10.60;79.30;;;;;;5102468;28;19911;-69
2022/04/13 07:02:15;;;;;;;;;;;10.70;81.40;;;;;;5102416;28;19975;-68
2022/04/13 07:04:41;;;;;;;;;;;10.70;82.10;;;;;;5102478;28;19908;-68
2022/04/13 07:07:07;;;;;;;;;;;10.80;82.80;;;;;;5101916;28;19916;-68
2022/04/13 07:09:33;;;;;;;;;;;10.90;83.10;;;;;;5119595;22;19951;-67
2022/04/13 07:11:59;;;;;;;;;;;11.00;82.80;;;;;;5106346;28;19981;-67
2022/04/13 07:14:24;;;;;;;;;;;11.00;82.50;;;;;;5105692;28;20297;-67
2022/04/13 07:16:50;;;;;;;;;;;11.10;81.60;;;;;;5106575;28;19971;-67
2022/04/13 07:19:16;;;;;;;;;;;11.20;80.80;;;;;;5106325;28;19908;-69
2022/04/13 07:21:41;;;;;;;;;;;11.30;80.60;;;;;;5106087;28;19914;-68
2022/04/13 07:24:07;;;;;;;;;;;11.40;80.30;;;;;;5105037;28;19908;-68
2022/04/13 07:26:33;;;;;;;;;;;11.50;79.90;;;;;;5106259;28;20157;-68
2022/04/13 07:28:59;;;;;;;;;;;11.60;74.00;;;;;;5106054;28;19912;-68
2022/04/13 07:31:25;;;;;;;;;;;11.90;72.80;;;;;;5105751;28;20099;-68
2022/04/13 07:33:50;;;;;;;;;;;12.10;66.00;;;;;;5104858;28;20204;-68
2022/04/13 07:36:16;;;;;;;;;;;12.20;71.80;;;;;;5104897;28;19935;-68
2022/04/13 07:38:42;;;;;;;;;;;12.20;74.00;;;;;;5104991;28;19908;-68
2022/04/13 07:41:08;;;;;;;;;;;12.30;71.10;;;;;;5086234;28;19942;-68
2022/04/13 07:43:33;;;;;;;;;;;12.50;66.90;;;;;;5085827;28;19954;-68
2022/04/13 07:45:59;;;;;;;;;;;12.80;63.10;;;;;;5085690;28;20115;-68
2022/04/13 07:48:25;;;;;;;;;;;13.00;62.10;;;;;;5085326;28;19915;-67
2022/04/13 07:50:50;;;;;;;;;;;13.20;60.20;;;;;;5085023;28;20260;-68
2022/04/13 07:53:16;;;;;;;;;;;13.20;59.30;;;;;;5085360;28;19921;-68
2022/04/13 07:55:42;;;;;;;;;;;13.30;59.30;;;;;;5085290;28;20226;-68
2022/04/13 07:58:07;;;;;;;;;;;13.50;59.10;;;;;;5085438;28;19916;-68
2022/04/13 08:00:33;;;;;;;;;;;13.60;58.50;;;;;;5085139;28;19916;-68
2022/04/13 08:02:59;;;;;;;;;;;13.70;58.40;;;;;;5085310;28;19939;-68
2022/04/13 08:05:24;;;;;;;;;;;13.70;57.60;;;;;;5084913;28;19908;-68
2022/04/13 08:07:50;;;;;;;;;;;13.70;58.60;;;;;;5085447;28;19915;-68
2022/04/13 08:10:16;;;;;;;;;;;13.70;58.50;;;;;;5084948;28;19947;-68
2022/04/13 08:12:42;;;;;;;;;;;13.70;58.30;;;;;;5084301;28;19912;-68
2022/04/13 08:15:08;;;;;;;;;;;13.90;57.30;;;;;;5085476;28;20242;-68
2022/04/13 08:17:34;;;;;;;;;;;14.00;56.80;;;;;;5085434;28;19909;-68
2022/04/13 08:20:00;;;;;;;;;;;14.20;57.00;;;;;;5083973;28;19947;-68
2022/04/13 08:22:26;;;;;;;;;;;14.20;56.40;;;;;;5085202;28;19908;-68
2022/04/13 08:24:51;;;;;;;;;;;14.30;55.20;;;;;;5084841;28;19908;-68
2022/04/13 08:27:17;;;;;;;;;;;14.40;54.50;;;;;;5084008;28;19908;-68
2022/04/13 08:29:43;;;;;;;;;;;14.30;54.20;;;;;;5083784;28;19909;-68
2022/04/13 08:32:09;;;;;;;;;;;14.40;54.30;;;;;;5084652;28;19920;-68
2022/04/13 08:34:35;;;;;;;;;;;14.50;53.20;;;;;;5084879;28;19916;-68
2022/04/13 08:37:00;;;;;;;;;;;14.60;52.20;;;;;;5084887;28;19909;-68
2022/04/13 08:39:26;;;;;;;;;;;14.70;51.80;;;;;;5084522;28;20194;-68
2022/04/13 08:41:57;;;;;;;;;;;14.80;52.60;;;;;;5084451;28;20163;-68
2022/04/13 08:44:36;;;;;;;;;;;15.00;51.90;;;;;;5084687;28;20007;-68
2022/04/13 08:47:06;;;;;;;;;;;15.00;51.90;;;;;;5084599;28;19916;-68
2022/04/13 08:49:35;;;;;;;;;;;15.10;51.80;;;;;;5084346;28;19915;-68
2022/04/13 08:52:04;;;;;;;;;;;15.10;51.40;;;;;;5083280;28;19996;-68
2022/04/13 08:54:40;;;;;;;;;;;15.30;51.30;;;;;;5066490;28;19908;-68
2022/04/13 08:57:07;;;;;;;;;;;15.40;50.70;;;;;;5083311;28;20229;-68
2022/04/13 08:59:56;;;;;;;;;;;15.50;50.70;;;;;;5083331;28;19910;-68
2022/04/13 09:02:28;;;;;;;;;;;15.60;50.20;;;;;;5066564;28;20199;-68
2022/04/13 09:04:56;;;;;;;;;;;15.60;50.80;;;;;;5083246;28;19931;-68
2022/04/13 09:07:22;;;;;;;;;;;15.80;50.10;;;;;;5083110;28;19976;-68
2022/04/13 09:09:49;;;;;;;;;;;15.90;50.50;;;;;;5083626;28;19917;-68
2022/04/13 09:12:14;;;;;;;;;;;16.10;50.90;;;;;;5082807;28;19920;-68
2022/04/13 09:14:40;;;;;;;;;;;16.20;50.00;;;;;;5066358;28;20209;-68
2022/04/13 09:17:06;;;;;;;;;;;16.30;49.30;;;;;;5083807;28;19908;-68
2022/04/13 09:19:32;;;;;;;;;;;16.50;49.50;;;;;;5082847;28;19975;-68
2022/04/13 09:21:58;;;;;;;;;;;16.60;48.80;;;;;;5082448;28;20199;-67
2022/04/13 09:24:25;;;;;;;;;;;16.60;48.50;;;;;;5083462;28;19954;-68
2022/04/13 09:26:50;;;;;;;;;;;16.70;48.00;;;;;;5082733;28;19931;-68
2022/04/13 09:29:16;;;;;;;;;;;16.80;48.20;;;;;;5082593;28;20274;-67
2022/04/13 09:31:42;;;;;;;;;;;16.90;47.70;;;;;;5082800;28;19908;-67
2022/04/13 09:34:08;;;;;;;;;;;16.90;49.30;;;;;;5082463;28;20203;-68
2022/04/13 09:36:34;;;;;;;;;;;17.20;48.10;;;;;;5049337;28;19978;-68
2022/04/13 09:39:00;;;;;;;;;;;17.20;47.20;;;;;;5065721;28;19913;-68
2022/04/13 09:41:33;;;;;;;;;;;17.30;48.20;;;;;;5065442;28;19970;-67
2022/04/13 09:43:59;;;;;;;;;;;17.50;49.20;;;;;;5082191;28;19943;-68
2022/04/13 09:46:31;;;;;;;;;;;17.70;47.70;;;;;;5083493;28;19908;-68
2022/04/13 09:49:12;;;;;;;;;;;18.00;47.00;;;;;;5083421;28;20178;-68
2022/04/13 09:51:39;;;;;;;;;;;18.10;47.70;;;;;;5081958;28;19947;-68
2022/04/13 09:54:12;;;;;;;;;;;18.10;46.90;;;;;;5083397;28;19920;-68
2022/04/13 09:56:38;;;;;;;;;;;18.20;47.40;;;;;;5083104;28;19943;-68
2022/04/13 09:59:05;;;;;;;;;;;18.50;46.40;;;;;;5083262;28;20006;-67
2022/04/13 10:01:34;;;;;;;;;;;18.70;47.00;;;;;;5082835;28;19932;-68
2022/04/13 10:04:00;;;;;;;;;;;18.80;46.40;;;;;;5065320;28;19954;-67
2022/04/13 10:06:30;;;;;;;;;;;18.90;46.20;;;;;;5081881;28;19909;-68
2022/04/13 10:09:05;;;;;;;;;;;19.10;45.20;;;;;;5082803;28;19916;-68
2022/04/13 10:11:31;;;;;;;;;;;19.00;46.50;;;;;;5082499;28;20207;-68
2022/04/13 10:13:56;;;;;;;;;;;19.20;46.50;;;;;;5083152;28;19919;-68
2022/04/13 10:16:22;;;;;;;;;;;19.40;44.60;;;;;;5081958;28;20249;-68
2022/04/13 10:18:55;;;;;;;;;;;19.60;45.30;;;;;;5081807;28;19915;-68
2022/04/13 10:21:34;;;;;;;;;;;19.70;44.50;;;;;;5082618;28;20218;-68
2022/04/13 10:24:00;;;;;;;;;;;19.70;43.60;;;;;;5082960;28;19908;-68
2022/04/13 10:26:25;;;;;;;;;;;19.70;43.30;;;;;;5081615;28;19909;-68
2022/04/13 10:28:51;;;;;;;;;;;19.90;45.60;;;;;;5081745;28;20222;-67
2022/04/13 10:31:17;;;;;;;;;;;20.30;44.20;;;;;;5082476;28;19908;-68
2022/04/13 10:33:47;;;;;;;;;;;20.40;42.20;;;;;;5081602;28;19912;-68
2022/04/13 10:36:13;;;;;;;;;;;20.50;42.90;;;;;;5082542;28;19908;-68
2022/04/13 10:38:39;;;;;;;;;;;20.60;42.40;;;;;;5081565;28;19908;-68
2022/04/13 10:41:05;;;;;;;;;;;20.50;43.00;;;;;;5082135;28;19916;-68
2022/04/13 10:43:30;;;;;;;;;;;20.80;43.60;;;;;;5067258;28;19979;-68
2022/04/13 10:45:56;;;;;;;;;;;21.00;46.20;;;;;;5086841;28;19908;-68
2022/04/13 10:48:22;;;;;;;;;;;21.20;43.10;;;;;;5086675;28;19909;-68
2022/04/13 10:50:51;;;;;;;;;;;21.40;42.20;;;;;;5068562;28;20158;-68
2022/04/13 10:53:17;;;;;;;;;;;21.50;41.30;;;;;;5086557;28;19912;-68
2022/04/13 10:55:43;;;;;;;;;;;21.60;41.50;;;;;;5086363;28;20208;-68
2022/04/13 10:58:42;;;;;;;;;;;21.60;42.60;;;;;;5068837;28;19912;-68
2022/04/13 11:01:11;;;;;;;;;;;21.80;41.60;;;;;;5085551;28;19909;-68
2022/04/13 11:03:37;;;;;;;;;;;22.10;41.30;;;;;;5086576;28;20196;-68
2022/04/13 11:06:08;;;;;;;;;;;22.10;39.80;;;;;;5086487;28;19999;-68
2022/04/13 11:08:48;;;;;;;;;;;22.10;39.10;;;;;;5086353;28;19916;-68
2022/04/13 11:11:17;;;;;;;;;;;22.20;39.90;;;;;;5084369;28;19927;-68
2022/04/13 11:13:47;;;;;;;;;;;22.30;39.60;;;;;;5085896;28;19913;-68
2022/04/13 11:16:17;;;;;;;;;;;22.40;39.00;;;;;;5086473;28;20115;-68
2022/04/13 11:19:04;;;;;;;;;;;22.40;39.20;;;;;;5086063;28;19909;-68
2022/04/13 11:21:29;;;;;;;;;;;22.50;38.80;;;;;;5071338;28;20170;-68
2022/04/13 11:23:55;;;;;;;;;;;22.60;38.60;;;;;;5086096;28;19923;-68
2022/04/13 11:26:34;;;;;;;;;;;22.90;39.10;;;;;;5067940;28;19970;-67
2022/04/13 11:29:09;;;;;;;;;;;22.90;37.70;;;;;;5084937;28;19908;-67
2022/04/13 11:32:00;;;;;;;;;;;23.10;38.30;;;;;;5085610;28;19936;-68
2022/04/13 11:34:29;;;;;;;;;;;23.30;36.60;;;;;;5085603;28;19912;-68
2022/04/13 11:37:02;;;;;;;;;;;23.30;36.40;;;;;;5085926;28;19986;-68
2022/04/13 11:39:52;;;;;;;;;;;23.50;38.70;;;;;;5085644;28;19935;-67
2022/04/13 11:42:27;;;;;;;;;;;23.70;36.30;;;;;;5085457;28;20123;-67
2022/04/13 11:45:00;;;;;;;;;;;23.80;37.00;;;;;;5085712;28;19916;-68
2022/04/13 11:47:39;;;;;;;;;;;24.00;36.30;;;;;;5085668;28;19984;-67
2022/04/13 11:50:14;;;;;;;;;;;24.20;35.10;;;;;;5085475;28;19908;-67
2022/04/13 11:52:53;;;;;;;;;;;24.30;36.00;;;;;;5085321;28;19944;-68
2022/04/13 11:55:25;;;;;;;;;;;24.80;35.20;;;;;;5084608;28;19916;-68
2022/04/13 11:58:09;;;;;;;;;;;24.90;35.20;;;;;;5085460;28;20196;-68
2022/04/13 12:00:56;;;;;;;;;;;25.20;35.20;;;;;;5085122;28;20123;-68
2022/04/13 12:03:23;;;;;;;;;;;25.70;35.50;;;;;;5084178;28;19908;-68
2022/04/13 12:05:50;;;;;;;;;;;26.10;32.50;;;;;;5085257;28;20231;-68
2022/04/13 12:08:18;;;;;;;;;;;26.20;32.40;;;;;;5085253;28;19936;-68
2022/04/13 12:10:45;;;;;;;;;;;26.40;32.90;;;;;;5083396;28;19913;-68
2022/04/13 12:13:11;;;;;;;;;;;27.10;31.30;;;;;;5085295;28;20224;-68
2022/04/13 12:15:47;;;;;;;;;;;27.70;30.60;;;;;;5084173;28;20054;-68
2022/04/13 12:18:13;;;;;;;;;;;28.20;30.20;;;;;;5067519;28;20211;-68
2022/04/13 12:20:40;;;;;;;;;;;28.80;30.00;;;;;;5067084;28;19954;-68
2022/04/13 12:23:25;;;;;;;;;;;28.70;30.30;;;;;;5084894;28;19912;-68
2022/04/13 12:25:52;;;;;;;;;;;29.30;30.40;;;;;;5084770;28;20226;-68
2022/04/13 12:28:19;;;;;;;;;;;29.90;30.20;;;;;;5084917;28;20222;-68
2022/04/13 12:31:00;;;;;;;;;;;30.30;29.10;;;;;;5084377;28;19916;-68
2022/04/13 12:33:26;;;;;;;;;;;30.30;28.90;;;;;;5084811;28;19913;-68
2022/04/13 12:35:58;;;;;;;;;;;30.20;28.90;;;;;;5083734;28;20022;-68
2022/04/13 12:38:35;;;;;;;;;;;30.40;28.50;;;;;;5066979;28;20253;-68
2022/04/13 12:41:09;;;;;;;;;;;31.10;28.20;;;;;;5066491;28;19914;-68
2022/04/13 12:43:36;;;;;;;;;;;31.30;28.00;;;;;;5084709;28;20157;-68
2022/04/13 12:46:31;;;;;;;;;;;31.60;26.80;;;;;;5084577;28;20204;-68
2022/04/13 12:48:58;;;;;;;;;;;32.00;26.60;;;;;;5074925;28;19915;-68
2022/04/13 12:51:24;;;;;;;;;;;31.60;27.00;;;;;;5084169;28;19991;-68
2022/04/13 12:54:05;;;;;;;;;;;32.00;26.90;;;;;;5083162;28;19913;-68
2022/04/13 12:56:36;;;;;;;;;;;32.00;27.00;;;;;;5083039;28;19909;-69
2022/04/13 12:59:02;;;;;;;;;;;32.50;26.90;;;;;;5084345;28;19982;-68
2022/04/13 13:01:34;;;;;;;;;;;33.50;26.20;;;;;;5083922;28;19912;-68
2022/04/13 13:04:13;;;;;;;;;;;33.80;25.70;;;;;;5083931;28;19954;-68
2022/04/13 13:07:06;;;;;;;;;;;33.10;26.20;;;;;;5083186;28;19917;-68
2022/04/13 13:09:33;;;;;;;;;;;32.90;25.70;;;;;;5106181;22;19912;-68
2022/04/13 13:12:07;;;;;;;;;;;32.80;24.80;;;;;;5127506;27;19926;-68
2022/04/13 13:14:49;;;;;;;;;;;32.30;25.70;;;;;;5144939;27;19908;-69
2022/04/13 13:17:15;;;;;;;;;;;31.70;25.90;;;;;;5145524;27;19952;-69
2022/04/13 13:19:40;;;;;;;;;;;31.40;26.60;;;;;;5145150;27;20206;-69
2022/04/13 13:22:23;;;;;;;;;;;31.70;26.50;;;;;;5145175;27;19952;-70
2022/04/13 13:24:56;;;;;;;;;;;32.10;25.50;;;;;;5144835;27;19907;-68
2022/04/13 13:27:23;;;;;;;;;;;32.50;24.40;;;;;;5145079;27;19907;-68
2022/04/13 13:29:49;;;;;;;;;;;32.00;24.70;;;;;;5144798;27;19914;-69
2022/04/13 13:32:16;;;;;;;;;;;32.00;23.90;;;;;;5126357;27;19911;-70
2022/04/13 13:35:11;;;;;;;;;;;31.30;24.80;;;;;;5145043;27;19914;-69
2022/04/13 13:37:40;;;;;;;;;;;31.30;25.00;;;;;;5124778;27;20050;-69
2022/04/13 13:40:36;;;;;;;;;;;31.10;25.60;;;;;;5135162;27;20118;-69
2022/04/13 13:43:07;;;;;;;;;;;32.00;25.70;;;;;;5103725;28;19908;-70
2022/04/13 13:45:34;;;;;;;;;;;32.10;25.50;;;;;;5085593;28;20106;-69
2022/04/13 13:48:00;;;;;;;;;;;32.70;24.90;;;;;;5103581;28;19979;-69
2022/04/13 13:50:27;;;;;;;;;;;33.20;24.80;;;;;;5103838;28;19908;-69
2022/04/13 13:52:53;;;;;;;;;;;33.40;25.00;;;;;;5103553;28;19958;-69
2022/04/13 13:55:28;;;;;;;;;;;33.20;25.00;;;;;;5085492;28;19912;-69
2022/04/13 13:57:56;;;;;;;;;;;32.60;25.20;;;;;;5103708;28;19908;-69
2022/04/13 14:00:22;;;;;;;;;;;32.30;25.70;;;;;;5103534;28;19908;-69
2022/04/13 14:02:52;;;;;;;;;;;32.00;25.90;;;;;;5103471;28;20158;-69
2022/04/13 14:05:28;;;;;;;;;;;32.30;25.30;;;;;;5103883;28;20214;-69
2022/04/13 14:07:55;;;;;;;;;;;32.10;25.30;;;;;;5103426;28;19935;-69
2022/04/13 14:10:21;;;;;;;;;;;31.70;25.90;;;;;;5084678;28;19967;-70
2022/04/13 14:12:46;;;;;;;;;;;31.80;25.40;;;;;;5103083;28;19920;-69
2022/04/13 14:15:12;;;;;;;;;;;31.10;26.20;;;;;;5103339;28;19948;-70
2022/04/13 14:17:39;;;;;;;;;;;30.70;26.70;;;;;;5103065;28;20187;-69
2022/04/13 14:20:05;;;;;;;;;;;30.20;27.00;;;;;;5103233;28;19931;-69
2022/04/13 14:22:32;;;;;;;;;;;30.40;26.70;;;;;;5102883;28;19915;-69
2022/04/13 14:24:58;;;;;;;;;;;31.10;25.10;;;;;;5102988;28;19915;-69
2022/04/13 14:27:24;;;;;;;;;;;30.80;25.50;;;;;;5103082;28;20203;-70